Lapis Arrow — C6VH5 — position and weather

sailwx.info

Track history (hours):
 
Tides and Currents Weather Stations Pressure Air Temp Water Temp Dewpoint Dewpoint Depression Visibility Wind Speed Wind Dir Waves Ship Positions

Lapis Arrow

Last reported at 2015-Aug-30 01:33 UTC. Time now 2015-Sep-04 05:52 UTC.
Position N 34°50' E 140°09'.

Length 176 m; draft 7.3 m.

Type: Cargo ship. MMSI: 308800800.

Date/timePositionNaut miles runAvg speedWind from/ knotsBaromVisibWave heightAir tempDewpointWater temp
2015-Aug-30 01:33N 34°50' E 140°09'1612.7
2015-Aug-30 00:16N 34°50' E 139°50'912.4
2015-Aug-29 23:31N 34°57' E 139°42'1414.2
2015-Aug-29 22:33N 35°11' E 139°46'1211.9
2015-Aug-29 21:33N 35°22' E 139°42'5 5.0
2015-Aug-29 20:33N 35°27' E 139°41'0 0.0
2015-Aug-29 19:33N 35°27' E 139°41'0 0.0
2015-Aug-29 18:29N 35°27' E 139°41'0 0.0
2015-Aug-29 17:31N 35°27' E 139°41'0 0.0
2015-Aug-29 16:32N 35°27' E 139°41'0 0.0
2015-Aug-29 15:31N 35°27' E 139°41'0 0.0
2015-Aug-29 14:32N 35°27' E 139°41'0 0.0
2015-Aug-29 13:28N 35°27' E 139°41'0 0.0
2015-Aug-29 12:31N 35°27' E 139°41'0 0.0
2015-Aug-29 11:28N 35°27' E 139°41'0 0.0
2015-Aug-29 10:30N 35°27' E 139°41'0 0.1
2015-Aug-29 09:33N 35°27' E 139°41'3 2.7
2015-Aug-29 08:33N 35°26' E 139°44'0 0.1
2015-Aug-29 07:33N 35°26' E 139°44'0 0.0
2015-Aug-29 06:33N 35°26' E 139°44'0 0.0
2015-Aug-29 05:33N 35°26' E 139°44'0 0.1
2015-Aug-29 04:32N 35°26' E 139°44'0 0.0
2015-Aug-29 03:28N 35°26' E 139°44'0 0.0
2015-Aug-29 02:33N 35°26' E 139°44'0 0.0
2015-Aug-29 01:33N 35°26' E 139°44'7 7.2
2015-Aug-29 00:33N 35°19' E 139°44'1010.2
2015-Aug-28 23:33N 35°08' E 139°46'  
2015-Aug-26 09:17N 34°36' E 139°35'1114.8
2015-Aug-26 08:32N 34°36' E 139°49'1515.0
2015-Aug-26 07:31N 34°43' E 140°05'1414.1
2015-Aug-26 06:31N 34°49' E 140°21'  
Track history (hours):
 
Tides and Currents Weather Stations Pressure Air Temp Water Temp Dewpoint Dewpoint Depression Visibility Wind Speed Wind Dir Waves Ship Positions

Lapis Arrow

Last reported at 2015-Aug-30 01:33 UTC. Time now 2015-Sep-04 05:52 UTC.
Position N 34°50' E 140°09'.

Length 176 m; draft 7.3 m.

Type: Cargo ship. MMSI: 308800800.

Date/timePositionNaut miles runAvg speedWind from/ knotsBaromVisibWave heightAir tempDewpointWater temp
2015-Aug-30 01:33N 34°50' E 140°09'1612.7
2015-Aug-30 00:16N 34°50' E 139°50'912.4
2015-Aug-29 23:31N 34°57' E 139°42'1414.2
2015-Aug-29 22:33N 35°11' E 139°46'1211.9
2015-Aug-29 21:33N 35°22' E 139°42'5 5.0
2015-Aug-29 20:33N 35°27' E 139°41'0 0.0
2015-Aug-29 19:33N 35°27' E 139°41'0 0.0
2015-Aug-29 18:29N 35°27' E 139°41'0 0.0
2015-Aug-29 17:31N 35°27' E 139°41'0 0.0
2015-Aug-29 16:32N 35°27' E 139°41'0 0.0
2015-Aug-29 15:31N 35°27' E 139°41'0 0.0
2015-Aug-29 14:32N 35°27' E 139°41'0 0.0
2015-Aug-29 13:28N 35°27' E 139°41'0 0.0
2015-Aug-29 12:31N 35°27' E 139°41'0 0.0
2015-Aug-29 11:28N 35°27' E 139°41'0 0.0
2015-Aug-29 10:30N 35°27' E 139°41'0 0.1
2015-Aug-29 09:33N 35°27' E 139°41'3 2.7
2015-Aug-29 08:33N 35°26' E 139°44'0 0.1
2015-Aug-29 07:33N 35°26' E 139°44'0 0.0
2015-Aug-29 06:33N 35°26' E 139°44'0 0.0
2015-Aug-29 05:33N 35°26' E 139°44'0 0.1
2015-Aug-29 04:32N 35°26' E 139°44'0 0.0
2015-Aug-29 03:28N 35°26' E 139°44'0 0.0
2015-Aug-29 02:33N 35°26' E 139°44'0 0.0
2015-Aug-29 01:33N 35°26' E 139°44'7 7.2
2015-Aug-29 00:33N 35°19' E 139°44'1010.2
2015-Aug-28 23:33N 35°08' E 139°46'  
2015-Aug-26 09:17N 34°36' E 139°35'1114.8
2015-Aug-26 08:32N 34°36' E 139°49'1515.0
2015-Aug-26 07:31N 34°43' E 140°05'1414.1
2015-Aug-26 06:31N 34°49' E 140°21'  

Dump ship's entire track history